Time;durP1;ratioP1;P1;durP2;ratioP2;P2;SDS_P1;SDS_P2;PMS_P1;PMS_P2;Temp;Humidity;BMP_temperature;BMP_pressure;BME280_temperature;BME280_humidity;BME280_pressure;Samples;Min_cycle;Max_cycle;Signal;HPM_P1;HPM_P2
2022/01/30 00:00:19;;;;;;;20.15;2.38;;;;;;;5.69;70.28;102601.84;5050939;28;20476;-80
2022/01/30 00:02:44;;;;;;;14.63;2.53;;;;;;;5.66;70.21;102604.34;5050812;28;20522;-79
2022/01/30 00:05:10;;;;;;;24.05;3.17;;;;;;;5.68;69.58;102600.97;5050720;28;20184;-80
2022/01/30 00:07:35;;;;;;;21.88;2.85;;;;;;;5.59;70.08;102609.38;5051673;28;20499;-80
2022/01/30 00:10:01;;;;;;;24.23;3.08;;;;;;;5.60;70.29;102608.53;5051181;28;20033;-79
2022/01/30 00:12:43;;;;;;;15.98;2.55;;;;;;;5.58;70.28;102614.50;5051768;28;20025;-80
2022/01/30 00:15:10;;;;;;;14.20;1.98;;;;;;;5.53;70.19;102606.66;5051007;28;20488;-80
2022/01/30 00:17:42;;;;;;;22.48;2.47;;;;;;;5.55;70.29;102610.13;5049586;28;20223;-80
2022/01/30 00:20:17;;;;;;;21.23;2.95;;;;;;;5.56;69.84;102606.72;5050937;28;20021;-80
2022/01/30 00:22:48;;;;;;;18.42;2.47;;;;;;;5.54;69.83;102615.28;5048170;28;20083;-80
2022/01/30 00:25:26;;;;;;;;;;;;;;;5.58;70.29;102612.78;5048025;28;20025;-80
2022/01/30 00:28:02;;;;;;;27.58;2.45;;;;;;;5.50;69.67;102609.16;5047621;28;19921;-79
2022/01/30 00:30:33;;;;;;;13.98;2.58;;;;;;;5.49;69.69;102622.03;5054713;28;20025;-80
2022/01/30 00:32:58;;;;;;;25.20;3.22;;;;;;;5.51;69.72;102621.22;5050682;28;20033;-80
2022/01/30 00:35:23;;;;;;;20.60;2.53;;;;;;;5.48;69.91;102626.31;5050772;28;20486;-79
2022/01/30 00:37:49;;;;;;;13.85;2.30;;;;;;;5.46;69.94;102630.59;5048393;28;20128;-79
2022/01/30 00:40:14;;;;;;;18.10;2.92;;;;;;;5.43;70.04;102622.75;5050747;28;20072;-79
2022/01/30 00:42:39;;;;;;;19.75;2.55;;;;;;;5.38;70.56;102621.75;5066182;28;20020;-80
2022/01/30 00:45:05;;;;;;;15.82;2.70;;;;;;;5.38;70.27;102626.94;5054256;28;20060;-79
2022/01/30 00:47:31;;;;;;;19.33;2.85;;;;;;;5.32;70.27;102641.41;5045397;28;20037;-79
2022/01/30 00:49:57;;;;;;;21.23;2.90;;;;;;;5.33;70.33;102629.41;5053115;28;20025;-79
2022/01/30 00:52:22;;;;;;;24.52;3.33;;;;;;;5.28;70.59;102629.28;5050684;28;20028;-79
2022/01/30 00:54:48;;;;;;;19.58;2.92;;;;;;;5.24;71.00;102630.03;5048069;28;20017;-79
2022/01/30 00:57:13;;;;;;;19.88;2.60;;;;;;;5.25;70.66;102638.63;5047461;28;20052;-80
2022/01/30 00:59:38;;;;;;;22.10;2.50;;;;;;;5.23;70.52;102636.03;5047409;28;20033;-79
2022/01/30 01:02:04;;;;;;;21.77;3.00;;;;;;;5.17;71.31;102638.44;5048067;28;20040;-79
2022/01/30 01:04:30;;;;;;;18.08;2.70;;;;;;;5.18;71.10;102639.34;5048763;28;20352;-79
2022/01/30 01:06:55;;;;;;;19.02;2.90;;;;;;;5.14;71.39;102640.94;5049883;28;20525;-79
2022/01/30 01:09:25;;;;;;;22.50;2.72;;;;;;;5.12;71.25;102640.06;5052273;28;20028;-80
2022/01/30 01:25:17;;;;;;;18.48;2.50;;;;;;;5.03;71.75;102642.38;5051033;28;20067;-79
2022/01/30 01:27:42;;;;;;;17.60;2.65;;;;;;;5.01;71.90;102640.63;5050129;28;20444;-79
2022/01/30 01:30:08;;;;;;;21.00;2.50;;;;;;;4.97;71.56;102641.38;5051814;28;20047;-80
2022/01/30 01:32:33;;;;;;;17.73;2.85;;;;;;;5.00;71.95;102662.09;5053589;28;20070;-79
2022/01/30 01:35:00;;;;;;;19.33;2.55;;;;;;;4.99;71.67;102656.91;5050639;28;20033;-79
2022/01/30 01:37:25;;;;;;;20.60;2.90;;;;;;;4.93;71.83;102649.00;5052574;28;20044;-79
2022/01/30 01:39:50;;;;;;;18.63;2.80;;;;;;;4.93;71.59;102657.63;5052517;28;20108;-79
2022/01/30 01:42:16;;;;;;;21.33;3.08;;;;;;;4.92;71.55;102650.72;5051946;28;20120;-80
2022/01/30 01:44:46;;;;;;;17.80;2.85;;;;;;;4.90;71.94;102652.38;5050829;28;20009;-79
2022/01/30 01:47:12;;;;;;;18.75;3.13;;;;;;;4.86;71.94;102655.69;5049599;28;20044;-80
2022/01/30 01:49:39;;;;;;;15.65;2.45;;;;;;;4.92;71.79;102650.72;5051740;28;20042;-79
2022/01/30 01:54:43;;;;;;;17.83;2.55;;;;;;;4.84;71.60;102668.56;5048886;28;20127;-80
2022/01/30 01:57:08;;;;;;;11.68;2.17;;;;;;;4.88;71.05;102659.19;5052330;28;20025;-79
2022/01/30 01:59:34;;;;;;;16.70;2.40;;;;;;;4.85;71.49;102664.25;5048999;28;20100;-79
2022/01/30 02:02:01;;;;;;;18.90;2.83;;;;;;;4.90;70.92;102661.78;5050372;28;20032;-79
2022/01/30 02:04:27;;;;;;;18.23;2.22;;;;;;;4.82;71.33;102651.28;5048926;28;20029;-79
2022/01/30 02:07:03;;;;;;;17.45;2.10;;;;;;;4.80;70.94;102650.34;5051723;28;20021;-79
2022/01/30 02:09:31;;;;;;;22.52;2.60;;;;;;;4.74;71.01;102645.06;5046983;28;20025;-79
2022/01/30 02:11:57;;;;;;;17.88;2.25;;;;;;;4.72;71.67;102652.72;5049614;28;20090;-79
2022/01/30 02:15:15;;;;;;;20.33;2.58;;;;;;;4.70;71.13;102644.06;5052114;28;20496;-79
2022/01/30 02:28:00;;;;;;;11.52;2.22;;;;;;;4.57;72.33;102653.19;5049744;28;20119;-79
2022/01/30 02:30:31;;;;;;;16.77;2.13;;;;;;;4.53;71.92;102651.34;5050808;28;20484;-80
2022/01/30 02:32:57;;;;;;;18.48;2.20;;;;;;;4.55;72.40;102654.84;5049971;28;20025;-79
2022/01/30 02:35:22;;;;;;;17.40;2.60;;;;;;;4.53;72.08;102641.88;5049451;28;20031;-79
2022/01/30 02:37:51;;;;;;;18.13;2.42;;;;;;;4.54;72.20;102653.94;5049713;28;20028;-79
2022/01/30 02:40:17;;;;;;;14.87;2.23;;;;;;;4.55;71.92;102652.25;5047140;28;20642;-79
2022/01/30 02:42:47;;;;;;;13.43;2.15;;;;;;;4.51;72.35;102642.69;5050235;28;20066;-79
2022/01/30 02:45:14;;;;;;;16.77;1.95;;;;;;;4.50;72.21;102646.97;5049367;28;20021;-79
2022/01/30 02:47:53;;;;;;;19.70;2.50;;;;;;;4.50;72.68;102638.34;5050259;28;20025;-79
2022/01/30 02:50:32;;;;;;;14.18;2.22;;;;;;;4.47;72.26;102625.38;5047601;28;20431;-79
2022/01/30 02:52:58;;;;;;;20.02;2.50;;;;;;;4.45;72.86;102643.38;5052179;28;20029;-79
2022/01/30 02:55:24;;;;;;;18.10;2.27;;;;;;;4.46;72.79;102645.13;5050334;28;20013;-79
2022/01/30 02:57:49;;;;;;;15.63;2.47;;;;;;;4.45;72.63;102650.22;5049727;28;20025;-79
2022/01/30 03:00:14;;;;;;;17.85;2.47;;;;;;;4.44;73.19;102657.09;5050457;28;20029;-79
2022/01/30 03:02:41;;;;;;;17.65;2.45;;;;;;;4.46;72.93;102660.59;5049810;28;20013;-79
2022/01/30 03:05:06;;;;;;;14.98;2.45;;;;;;;4.47;72.53;102658.88;5050735;28;20029;-79
2022/01/30 03:07:32;;;;;;;14.80;2.60;;;;;;;4.45;72.68;102669.16;5048289;28;20033;-79
2022/01/30 03:09:57;;;;;;;13.50;2.05;;;;;;;4.44;73.15;102671.72;5047169;28;20460;-79
2022/01/30 03:12:23;;;;;;;23.88;2.50;;;;;;;4.45;72.60;102678.56;5049777;28;20085;-79
2022/01/30 03:14:48;;;;;;;21.77;3.08;;;;;;;4.44;72.92;102682.88;5048600;28;20033;-79
2022/01/30 03:17:13;;;;;;;23.73;2.53;;;;;;;4.42;73.19;102689.69;5048278;28;20029;-79
2022/01/30 03:19:39;;;;;;;13.85;1.98;;;;;;;4.39;72.94;102690.47;5049070;28;20396;-79
2022/01/30 03:22:04;;;;;;;22.60;3.78;;;;;;;4.39;73.04;102687.00;5048356;28;20105;-79
2022/01/30 03:24:35;;;;;;;17.80;2.25;;;;;;;4.39;73.01;102698.22;5048197;28;20126;-79
2022/01/30 03:27:00;;;;;;;21.60;2.78;;;;;;;4.42;73.19;102699.13;5047478;28;20044;-80
2022/01/30 03:29:25;;;;;;;23.42;2.65;;;;;;;4.44;73.04;102707.78;5049299;28;20025;-79
2022/01/30 03:31:51;;;;;;;22.75;2.35;;;;;;;4.42;73.29;102709.44;5050382;28;20102;-79
2022/01/30 03:34:16;;;;;;;13.50;2.15;;;;;;;4.47;73.05;102715.59;5049100;28;20029;-79
2022/01/30 03:36:41;;;;;;;15.65;2.47;;;;;;;4.49;73.32;102721.66;5047543;28;20061;-79
2022/01/30 03:39:07;;;;;;;17.80;2.50;;;;;;;4.55;72.89;102721.84;5046978;28;20128;-79
2022/01/30 03:41:32;;;;;;;16.85;2.67;;;;;;;4.60;72.66;102730.63;5050186;28;20389;-79
2022/01/30 03:43:57;;;;;;;17.77;2.30;;;;;;;4.63;72.17;102743.56;5048029;28;20037;-79
2022/01/30 03:46:23;;;;;;;14.93;2.50;;;;;;;4.62;72.22;102734.09;5047898;28;20025;-79
2022/01/30 03:48:49;;;;;;;15.63;2.70;;;;;;;4.61;72.50;102745.22;5047547;28;20031;-79
2022/01/30 03:51:15;;;;;;;14.43;2.05;;;;;;;4.61;72.15;102747.78;5050624;28;20394;-79
2022/01/30 03:53:40;;;;;;;21.77;2.65;;;;;;;4.56;71.97;102745.09;5050621;28;20050;-79
2022/01/30 03:56:06;;;;;;;12.32;2.10;;;;;;;4.55;72.35;102747.63;5047181;28;20032;-79
2022/01/30 03:58:33;;;;;;;16.73;2.40;;;;;;;4.54;72.45;102751.03;5049140;28;20063;-79
2022/01/30 04:00:58;;;;;;;15.77;1.95;;;;;;;4.51;72.51;102751.84;5048974;28;20063;-79
2022/01/30 04:03:23;;;;;;;19.90;2.45;;;;;;;4.54;72.46;102761.34;5049346;28;20052;-79
2022/01/30 04:05:49;;;;;;;17.58;2.17;;;;;;;4.53;71.91;102757.03;5048835;28;20029;-79
2022/01/30 04:08:14;;;;;;;19.48;2.20;;;;;;;4.52;71.82;102769.06;5048681;28;20033;-79
2022/01/30 04:10:40;;;;;;;14.20;1.90;;;;;;;4.55;71.63;102769.13;5046690;28;20524;-79
2022/01/30 04:13:05;;;;;;;10.55;1.80;;;;;;;4.53;71.71;102759.59;5047429;28;20045;-80
2022/01/30 04:15:31;;;;;;;16.35;1.95;;;;;;;4.51;71.73;102766.41;5048096;28;20103;-79
2022/01/30 04:17:56;;;;;;;16.88;2.00;;;;;;;4.51;70.66;102762.13;5048086;28;20044;-79
2022/01/30 04:20:22;;;;;;;10.35;1.88;;;;;;;4.48;70.83;102762.03;5045748;28;20029;-79
2022/01/30 04:22:47;;;;;;;13.77;1.90;;;;;;;4.49;70.69;102766.38;5047651;28;20464;-79
2022/01/30 04:25:13;;;;;;;13.65;1.63;;;;;;;4.49;69.67;102756.06;5046432;28;20028;-79
2022/01/30 04:27:38;;;;;;;10.80;1.48;;;;;;;4.48;69.71;102763.72;5048238;28;20036;-79
2022/01/30 04:30:05;;;;;;;10.33;1.83;;;;;;;4.42;69.85;102766.13;5048532;28;20456;-79
2022/01/30 04:32:33;;;;;;;11.55;1.58;;;;;;;4.38;69.55;102766.03;5046226;28;20051;-79
2022/01/30 04:35:00;;;;;;;11.52;1.33;;;;;;;4.37;69.60;102772.00;5048372;28;20020;-79
2022/01/30 04:37:49;;;;;;;9.13;1.50;;;;;;;4.30;69.54;102772.63;5047205;28;20518;-79
2022/01/30 04:40:43;;;;;;;9.57;1.17;;;;;;;4.33;69.17;102767.59;5047047;28;20118;-79
2022/01/30 04:56:59;;;;;;;6.80;1.13;;;;;;;4.13;70.00;102771.22;5049380;28;20384;-79
2022/01/30 05:02:28;;;;;;;14.53;1.70;;;;;;;4.09;70.23;102773.72;5049450;28;20281;-79
2022/01/30 05:05:24;;;;;;;8.03;1.07;;;;;;;4.09;70.23;102775.41;5048159;28;20025;-79
2022/01/30 05:07:49;;;;;;;14.57;1.30;;;;;;;4.07;70.41;102790.81;5046683;28;20090;-79
2022/01/30 05:10:15;;;;;;;8.83;1.40;;;;;;;4.07;70.39;102785.66;5048260;28;20037;-79
2022/01/30 05:12:53;;;;;;;8.23;1.87;;;;;;;4.04;70.66;102795.88;5046680;28;20021;-79
2022/01/30 05:15:20;;;;;;;9.63;1.50;;;;;;;4.03;70.28;102798.38;5045628;28;20480;-79
2022/01/30 05:17:45;;;;;;;12.97;1.70;;;;;;;4.01;70.42;102794.91;5046706;28;20022;-79
2022/01/30 05:20:11;;;;;;;8.23;1.20;;;;;;;4.02;70.61;102801.78;5047784;28;20469;-79
2022/01/30 05:22:37;;;;;;;18.25;1.55;;;;;;;3.99;70.41;102801.69;5047843;28;20043;-79
2022/01/30 05:25:03;;;;;;;8.67;1.70;;;;;;;4.00;69.92;102803.44;5048375;28;20025;-79
2022/01/30 05:27:29;;;;;;;7.77;1.30;;;;;;;4.01;69.55;102807.78;5047360;28;20032;-79
2022/01/30 05:29:54;;;;;;;10.23;1.30;;;;;;;3.99;69.92;102801.69;5048154;28;20021;-79
2022/01/30 05:32:20;;;;;;;9.40;1.10;;;;;;;3.96;70.18;102802.44;5046431;28;20057;-79
2022/01/30 05:34:46;;;;;;;11.93;1.30;;;;;;;3.98;69.67;102803.38;5045095;28;20112;-79
2022/01/30 05:37:14;;;;;;;9.33;1.00;;;;;;;3.99;69.33;102804.28;5048061;28;20028;-79
2022/01/30 05:39:39;;;;;;;11.97;1.63;;;;;;;3.97;69.85;102813.63;5051888;28;20078;-79
2022/01/30 05:42:05;;;;;;;10.37;1.67;;;;;;;3.94;70.02;102809.25;5050035;28;20017;-79
2022/01/30 05:44:44;;;;;;;10.60;1.50;;;;;;;3.88;69.63;102806.47;5049078;28;20036;-79
2022/01/30 05:47:14;;;;;;;11.00;1.50;;;;;;;3.88;69.79;102809.06;5048563;28;20112;-79
2022/01/30 05:49:40;;;;;;;10.40;1.73;;;;;;;3.83;70.51;102818.31;5056864;28;20052;-79
2022/01/30 05:52:05;;;;;;;10.37;2.03;;;;;;;3.80;70.34;102812.22;5050988;28;20033;-79
2022/01/30 05:54:31;;;;;;;8.97;1.10;;;;;;;3.79;70.45;102810.47;5047352;28;20035;-79
2022/01/30 05:56:56;;;;;;;9.77;1.60;;;;;;;3.79;70.47;102818.19;5052178;28;20032;-79
2022/01/30 05:59:21;;;;;;;9.30;1.37;;;;;;;3.75;70.58;102823.19;5051885;28;20025;-79
2022/01/30 06:01:46;;;;;;;8.93;1.20;;;;;;;3.72;70.99;102823.09;5049621;28;20024;-79
2022/01/30 06:04:12;;;;;;;8.50;1.50;;;;;;;3.69;71.05;102828.13;5049099;28;20351;-79
2022/01/30 06:06:37;;;;;;;10.77;1.37;;;;;;;3.68;71.51;102839.25;5049637;28;20074;-79
2022/01/30 06:09:23;;;;;;;10.97;2.13;;;;;;;3.66;71.70;102828.91;5051291;28;20036;-79
2022/01/30 06:11:49;;;;;;;11.17;1.40;;;;;;;3.65;71.60;102832.28;5051043;28;20028;-79
2022/01/30 06:14:16;;;;;;;13.97;1.50;;;;;;;3.63;71.55;102831.38;5049067;28;20120;-79
2022/01/30 06:16:42;;;;;;;7.50;1.33;;;;;;;3.63;71.64;102839.09;5050639;28;20040;-79
2022/01/30 06:19:07;;;;;;;10.40;1.50;;;;;;;3.62;71.75;102838.22;5051401;28;20436;-79
2022/01/30 06:21:32;;;;;;;10.07;1.40;;;;;;;3.63;71.78;102834.84;5050074;28;20111;-79
2022/01/30 06:23:58;;;;;;;10.17;1.03;;;;;;;3.63;72.10;102828.78;5049671;28;20467;-79
2022/01/30 06:26:24;;;;;;;8.02;1.05;;;;;;;3.61;71.69;102828.75;5050371;28;20028;-80
2022/01/30 06:28:50;;;;;;;10.90;1.60;;;;;;;3.61;71.38;102835.56;5050066;28;20369;-79
2022/01/30 06:31:15;;;;;;;9.73;1.20;;;;;;;3.58;71.15;102831.22;5049276;28;20025;-79
2022/01/30 06:33:41;;;;;;;12.43;1.40;;;;;;;3.56;71.37;102835.41;5048953;28;20110;-79
2022/01/30 06:36:06;;;;;;;9.77;1.70;;;;;;;3.55;71.47;102840.53;5049925;28;20029;-79
2022/01/30 06:38:31;;;;;;;11.63;1.50;;;;;;;3.51;71.18;102838.66;5048654;28;20025;-79
2022/01/30 06:40:56;;;;;;;12.83;1.60;;;;;;;3.49;71.03;102847.19;5049917;28;20017;-79
2022/01/30 06:43:22;;;;;;;14.47;1.60;;;;;;;3.47;71.54;102848.84;5049667;28;20040;-79
2022/01/30 06:45:50;;;;;;;11.47;1.87;;;;;;;3.46;71.35;102848.78;5051197;28;20043;-79
2022/01/30 06:48:19;;;;;;;8.17;1.40;;;;;;;3.45;71.41;102859.91;5050695;28;20036;-79
2022/01/30 06:50:45;;;;;;;13.73;1.23;;;;;;;3.44;71.29;102858.16;5048226;28;20515;-79
2022/01/30 06:53:10;;;;;;;12.13;1.77;;;;;;;3.43;71.52;102857.25;5050089;28;20395;-79
2022/01/30 06:55:39;;;;;;;10.73;1.50;;;;;;;3.43;71.19;102864.97;5050838;28;20024;-79
2022/01/30 06:58:05;;;;;;;7.87;1.30;;;;;;;3.43;71.27;102867.53;5048492;28;20040;-79
2022/01/30 07:00:30;;;;;;;15.20;1.90;;;;;;;3.45;71.13;102870.19;5049898;28;20092;-79
2022/01/30 07:02:55;;;;;;;10.13;1.67;;;;;;;3.46;71.12;102877.97;5047239;28;20554;-79
2022/01/30 07:05:21;;;;;;;8.37;1.70;;;;;;;3.41;71.36;102879.50;5049726;28;20029;-79
2022/01/30 07:07:46;;;;;;;10.17;1.60;;;;;;;3.40;71.61;102885.47;5049517;28;20099;-79
2022/01/30 07:10:11;;;;;;;14.17;1.70;;;;;;;3.38;71.50;102888.78;5050171;28;20584;-79
2022/01/30 07:12:37;;;;;;;8.37;1.40;;;;;;;3.35;71.39;102892.13;5049698;28;20480;-79
2022/01/30 07:15:02;;;;;;;7.50;1.30;;;;;;;3.34;71.86;102898.97;5051281;28;20025;-79
2022/01/30 07:17:27;;;;;;;12.10;2.07;;;;;;;3.34;71.75;102898.97;5050103;28;20021;-79
2022/01/30 07:19:53;;;;;;;11.53;1.43;;;;;;;3.36;71.75;102896.47;5048750;28;20373;-79
2022/01/30 07:22:18;;;;;;;12.33;1.80;;;;;;;3.36;71.86;102898.13;5046933;28;20075;-79
2022/01/30 07:24:43;;;;;;;11.83;1.77;;;;;;;3.35;72.25;102894.69;5049566;28;20029;-79
2022/01/30 07:27:09;;;;;;;10.13;1.80;;;;;;;3.33;72.29;102897.19;5049266;28;20025;-79
2022/01/30 07:29:34;;;;;;;15.70;1.80;;;;;;;3.34;72.26;102903.25;5047238;28;20047;-79
2022/01/30 07:32:00;;;;;;;7.93;1.20;;;;;;;3.34;72.49;102904.09;5047063;28;20040;-79
2022/01/30 07:34:25;;;;;;;10.68;1.42;;;;;;;3.34;72.27;102905.81;5046502;28;20392;-79
2022/01/30 07:36:50;;;;;;;17.17;1.70;;;;;;;3.34;72.56;102903.25;5049724;28;20025;-79
2022/01/30 07:39:19;;;;;;;10.67;1.53;;;;;;;3.33;72.29;102911.78;5048118;28;20158;-79
2022/01/30 07:41:44;;;;;;;12.13;1.58;;;;;;;3.34;72.12;102918.69;5048461;28;20025;-79
2022/01/30 07:44:09;;;;;;;12.10;1.50;;;;;;;3.32;72.33;102912.59;5054441;28;20066;-79
2022/01/30 07:46:35;;;;;;;10.67;1.50;;;;;;;3.32;72.29;102922.88;5050358;28;20044;-79
2022/01/30 07:49:01;;;;;;;12.30;1.60;;;;;;;3.31;72.46;102923.69;5048676;28;20025;-79
2022/01/30 07:51:27;;;;;;;9.60;1.50;;;;;;;3.31;72.65;102924.59;5047526;28;20056;-79
2022/01/30 07:53:52;;;;;;;8.97;1.47;;;;;;;3.31;72.52;102924.59;5047469;28;20032;-79
2022/01/30 07:56:17;;;;;;;8.20;1.40;;;;;;;3.33;72.97;102924.63;5047542;28;20079;-79
2022/01/30 07:58:43;;;;;;;12.15;1.67;;;;;;;3.35;72.97;102935.88;5049254;28;20036;-80
2022/01/30 08:01:08;;;;;;;11.37;1.67;;;;;;;3.38;72.53;102927.38;5046046;28;20025;-79
2022/01/30 08:03:33;;;;;;;10.87;1.50;;;;;;;3.39;72.74;102934.28;5048198;28;20029;-79
2022/01/30 08:05:58;;;;;;;11.00;1.77;;;;;;;3.39;72.40;102942.91;5047952;28;20029;-79
2022/01/30 08:08:24;;;;;;;15.97;1.80;;;;;;;3.42;71.99;102945.56;5049345;28;20484;-79
2022/01/30 08:10:49;;;;;;;9.97;1.37;;;;;;;3.47;72.01;102943.19;5047720;28;20035;-79
2022/01/30 08:13:16;;;;;;;16.65;1.50;;;;;;;3.44;72.17;102949.06;5048953;28;20443;-79
2022/01/30 08:15:42;;;;;;;11.13;1.52;;;;;;;3.48;71.88;102942.38;5045746;28;20055;-79
2022/01/30 08:18:07;;;;;;;7.07;1.47;;;;;;;3.47;71.87;102951.75;5053723;28;20020;-79
2022/01/30 08:20:33;;;;;;;14.70;1.70;;;;;;;3.49;72.16;102946.69;5048975;28;20029;-79
2022/01/30 08:23:00;;;;;;;13.87;2.03;;;;;;;3.54;72.06;102954.59;5047919;28;20122;-79
2022/01/30 08:25:26;;;;;;;16.10;1.67;;;;;;;3.60;71.82;102952.22;5046456;28;20023;-79
2022/01/30 08:27:53;;;;;;;14.50;2.38;;;;;;;3.70;71.38;102949.19;5050617;28;20033;-79
2022/01/30 08:30:18;;;;;;;14.38;1.52;;;;;;;3.74;71.38;102951.06;5048706;28;20041;-79
2022/01/30 08:32:45;;;;;;;13.70;2.03;;;;;;;3.80;71.07;102940.97;5048286;28;20065;-79
2022/01/30 08:35:13;;;;;;;16.65;1.90;;;;;;;3.90;70.20;102938.75;5048727;28;20045;-79
2022/01/30 08:37:39;;;;;;;15.10;2.05;;;;;;;3.91;70.67;102949.09;5047054;28;20021;-79
2022/01/30 08:40:07;;;;;;;15.88;1.85;;;;;;;3.98;70.11;102949.31;5045975;28;20027;-79
2022/01/30 08:42:32;;;;;;;18.23;2.55;;;;;;;4.05;70.60;102947.00;5047149;28;20079;-79
2022/01/30 08:44:58;;;;;;;13.60;1.77;;;;;;;4.13;70.14;102949.84;5045577;28;20041;-79
2022/01/30 08:47:23;;;;;;;12.95;2.05;;;;;;;4.17;69.71;102956.88;5047713;28;20471;-79
2022/01/30 08:49:48;;;;;;;13.18;2.13;;;;;;;4.20;70.16;102956.09;5052609;28;20072;-79
2022/01/30 08:52:16;;;;;;;18.73;1.95;;;;;;;4.21;69.91;102960.44;5055987;28;20036;-79
2022/01/30 08:54:42;;;;;;;14.35;1.83;;;;;;;4.22;69.82;102957.03;5058239;28;20471;-79
2022/01/30 08:57:07;;;;;;;13.07;1.90;;;;;;;4.29;69.04;102966.72;5049382;28;20059;-79
2022/01/30 08:59:33;;;;;;;9.88;2.10;;;;;;;4.29;69.21;102964.13;5048628;28;20032;-79
2022/01/30 09:01:58;;;;;;;16.70;2.13;;;;;;;4.28;69.06;102972.69;5048515;28;20060;-79
2022/01/30 09:04:23;;;;;;;17.70;2.15;;;;;;;4.30;68.72;102973.63;5049304;28;20162;-82
2022/01/30 09:06:48;;;;;;;16.80;2.40;;;;;;;4.33;68.87;102978.88;5049670;28;20522;-79
2022/01/30 09:09:14;;;;;;;14.32;2.85;;;;;;;4.37;68.30;102980.75;5049375;28;20025;-82
2022/01/30 09:11:39;;;;;;;20.27;2.20;;;;;;;4.42;69.00;102975.75;5053465;28;20522;-80
2022/01/30 09:14:04;;;;;;;19.10;2.20;;;;;;;4.46;68.31;102977.63;5048922;28;20096;-80
2022/01/30 09:16:30;;;;;;;12.50;2.17;;;;;;;4.48;68.54;102978.53;5048558;28;20459;-80
2022/01/30 09:18:56;;;;;;;11.85;1.73;;;;;;;4.53;67.67;102992.44;5046407;28;20428;-79
2022/01/30 09:21:21;;;;;;;13.23;2.38;;;;;;;4.58;67.67;102987.47;5056012;28;20519;-80
2022/01/30 09:23:47;;;;;;;14.38;2.40;;;;;;;4.58;68.09;102989.16;5056946;28;20044;-79
2022/01/30 09:26:12;;;;;;;15.95;2.33;;;;;;;4.61;67.93;102994.44;5059165;28;20662;-79
2022/01/30 09:28:37;;;;;;;15.07;2.45;;;;;;;4.65;67.44;103001.44;5057435;28;20073;-79
2022/01/30 09:31:03;;;;;;;16.27;2.00;;;;;;;4.64;68.45;103000.56;5061696;28;20082;-79
2022/01/30 09:33:28;;;;;;;17.35;2.00;;;;;;;4.66;68.28;102998.03;5060668;28;20025;-80
2022/01/30 09:35:53;;;;;;;21.13;2.88;;;;;;;4.71;67.46;103004.22;5053779;28;20036;-81
2022/01/30 09:38:19;;;;;;;19.10;2.97;;;;;;;4.75;67.94;103000.06;5056279;28;20078;-79
2022/01/30 09:40:44;;;;;;;16.73;2.25;;;;;;;4.78;68.38;103005.31;5056619;28;20029;-79
2022/01/30 09:43:10;;;;;;;15.73;2.35;;;;;;;4.82;67.41;103008.03;5058841;28;20356;-79
2022/01/30 09:45:35;;;;;;;13.60;2.75;;;;;;;4.83;67.87;103008.91;5059752;28;20036;-79
2022/01/30 09:48:01;;;;;;;15.85;2.30;;;;;;;4.87;67.87;103005.63;5061861;28;20048;-80
2022/01/30 09:50:28;;;;;;;18.67;3.13;;;;;;;4.92;66.90;103014.38;5061583;28;20832;-79
2022/01/30 09:52:53;;;;;;;21.33;2.55;;;;;;;4.98;67.48;103013.72;5059226;28;20065;-79
2022/01/30 09:55:19;;;;;;;18.42;2.10;;;;;;;5.02;67.79;103013.00;5059803;28;20025;-83
2022/01/30 09:57:44;;;;;;;17.70;2.78;;;;;;;5.08;67.36;103022.63;5060203;28;20029;-79
2022/01/30 10:00:11;;;;;;;21.25;2.85;;;;;;;5.11;66.76;103012.41;5057573;28;20471;-79
2022/01/30 10:02:40;;;;;;;18.38;2.35;;;;;;;5.15;67.36;103014.22;5061149;28;20407;-79
2022/01/30 10:05:06;;;;;;;19.58;2.17;;;;;;;5.21;66.57;103014.44;5059179;28;20513;-79
2022/01/30 10:07:49;;;;;;;17.73;2.22;;;;;;;5.29;66.88;103023.31;5060633;28;20021;-79
2022/01/30 10:10:19;;;;;;;20.05;2.38;;;;;;;5.38;66.88;103021.84;5057739;28;20021;-79
2022/01/30 10:13:07;;;;;;;20.25;2.10;;;;;;;5.50;67.31;103031.69;5060857;28;20438;-79
2022/01/30 10:15:49;;;;;;;18.83;2.50;;;;;;;5.54;67.38;103039.56;5060898;28;20054;-79
2022/01/30 10:18:16;;;;;;;;;;;;;;;5.65;66.78;103042.47;5058300;28;20080;-78
2022/01/30 10:20:41;;;;;;;17.38;2.50;;;;;;;5.59;65.57;103043.16;5061385;28;20014;-79
2022/01/30 10:23:10;;;;;;;16.30;2.67;;;;;;;5.58;65.47;103041.41;5062249;28;20566;-79
2022/01/30 10:25:40;;;;;;;18.23;2.63;;;;;;;5.60;66.04;103052.66;5065543;28;20145;-79
2022/01/30 10:28:07;;;;;;;22.08;2.70;;;;;;;5.64;64.87;103045.88;5062371;28;20505;-78
2022/01/30 10:30:58;;;;;;;19.08;2.90;;;;;;;5.56;66.42;103037.00;5059244;28;20044;-79
2022/01/30 10:33:40;;;;;;;18.63;2.65;;;;;;;5.51;66.06;103034.28;5045380;28;20025;-79
2022/01/30 10:36:08;;;;;;;;;;;;;;;5.52;67.21;103045.50;5056988;28;20039;-79
2022/01/30 10:38:37;;;;;;;22.70;2.50;;;;;;;5.50;66.25;103053.19;5054120;28;19925;-79
2022/01/30 10:41:18;;;;;;;20.63;2.50;;;;;;;5.54;65.89;103039.56;5055093;28;20091;-79
2022/01/30 10:43:57;;;;;;;17.27;2.45;;;;;;;5.57;65.62;103039.66;5059167;28;20055;-79
2022/01/30 10:46:48;;;;;;;21.10;2.75;;;;;;;5.60;65.86;103038.84;5059927;28;20489;-78
2022/01/30 10:49:15;;;;;;;19.15;3.20;;;;;;;5.67;64.85;103042.50;5050017;28;20039;-78
2022/01/30 10:51:57;;;;;;;23.35;3.53;;;;;;;5.67;64.24;103040.81;5060995;28;20028;-78
2022/01/30 10:54:26;;;;;;;21.70;2.60;;;;;;;5.69;63.88;103044.31;5060698;28;20040;-80
2022/01/30 10:57:05;;;;;;;22.15;3.05;;;;;;;5.78;64.49;103030.81;5059560;28;20017;-79
2022/01/30 10:59:31;;;;;;;22.15;3.00;;;;;;;5.83;63.66;103038.69;5058234;28;20107;-79
2022/01/30 11:02:11;;;;;;;19.02;2.95;;;;;;;5.84;62.50;103027.53;5059408;28;20165;-79
2022/01/30 11:04:36;;;;;;;20.45;3.03;;;;;;;5.83;62.98;103028.34;5056715;28;20033;-79
2022/01/30 11:07:03;;;;;;;13.63;2.20;;;;;;;5.82;61.80;103024.00;5055103;28;20032;-79
2022/01/30 11:09:34;;;;;;;26.40;3.53;;;;;;;5.81;61.10;103012.78;5057543;28;20036;-79
2022/01/30 11:12:06;;;;;;;18.00;2.30;;;;;;;5.81;61.69;103012.78;5055324;28;20029;-79
2022/01/30 11:14:40;;;;;;;17.38;2.53;;;;;;;5.86;62.71;103011.22;5051948;28;20076;-80
2022/01/30 11:17:08;;;;;;;19.90;3.67;;;;;;;5.90;63.06;103000.16;5054718;28;20032;-78
2022/01/30 11:19:39;;;;;;;13.27;2.75;;;;;;;5.99;62.20;102991.78;5055382;28;20024;-84
2022/01/30 11:22:07;;;;;;;21.33;2.75;;;;;;;6.02;62.10;102996.19;5054423;28;20045;-79
2022/01/30 11:24:35;;;;;;;21.50;3.13;;;;;;;6.08;61.47;102998.97;5055685;28;20033;-79
2022/01/30 11:27:03;;;;;;;15.98;2.63;;;;;;;6.11;61.62;103001.63;5053640;28;20029;-79
2022/01/30 11:29:29;;;;;;;17.95;2.75;;;;;;;6.16;62.77;103000.03;5055460;28;20035;-80
2022/01/30 11:31:54;;;;;;;19.52;3.00;;;;;;;6.27;63.74;103002.91;5056334;28;20036;-80
2022/01/30 11:34:23;;;;;;;19.08;2.55;;;;;;;6.30;61.39;102994.38;5054063;28;20037;-80
2022/01/30 11:36:49;;;;;;;17.92;2.25;;;;;;;6.38;62.64;102990.28;5053851;28;20111;-80
2022/01/30 11:39:18;;;;;;;21.00;3.13;;;;;;;6.49;63.07;102988.84;5061407;28;20021;-80
2022/01/30 11:42:12;;;;;;;16.15;3.20;;;;;;;6.57;63.21;102995.94;5052844;28;20037;-79
2022/01/30 11:44:39;;;;;;;21.73;2.65;;;;;;;6.61;62.43;102988.28;5051836;28;20120;-81
2022/01/30 11:47:04;;;;;;;16.45;2.50;;;;;;;6.66;61.73;102988.44;5054736;28;20400;-80
2022/01/30 11:49:48;;;;;;;19.52;2.65;;;;;;;6.69;61.23;102985.91;5056368;28;20480;-80
2022/01/30 11:52:15;;;;;;;16.25;2.30;;;;;;;6.64;60.22;102990.97;5052979;28;20068;-80
2022/01/30 11:54:42;;;;;;;21.02;2.55;;;;;;;6.63;60.70;102983.19;5057403;28;20105;-80
2022/01/30 11:57:19;;;;;;;20.60;2.95;;;;;;;6.71;61.15;102989.41;5059101;28;20062;-80
2022/01/30 11:59:46;;;;;;;20.23;2.85;;;;;;;6.86;60.86;102982.84;5057681;28;20040;-80
2022/01/30 12:02:29;;;;;;;16.48;2.75;;;;;;;7.02;60.27;102990.16;5061152;28;20028;-79
2022/01/30 12:05:00;;;;;;;16.75;2.45;;;;;;;7.01;59.98;102972.88;5052011;28;20380;-80
2022/01/30 12:07:39;;;;;;;13.48;2.00;;;;;;;7.02;59.71;102977.19;5056950;28;20493;-80
2022/01/30 12:10:19;;;;;;;17.63;2.60;;;;;;;6.98;60.49;102978.84;5045634;28;20391;-80
2022/01/30 12:12:59;;;;;;;23.85;2.45;;;;;;;6.91;59.00;102978.66;5052442;28;20046;-81